createdAt,value
2023-04-16T00:01:04.219Z,10.99
2023-04-16T00:03:32.485Z,10.98
2023-04-16T00:06:00.830Z,11.06
2023-04-16T00:08:28.749Z,10.89
2023-04-16T00:10:56.689Z,10.92
2023-04-16T00:13:28.116Z,10.83
2023-04-16T00:15:56.014Z,10.83
2023-04-16T00:18:23.819Z,10.94
2023-04-16T00:20:52.164Z,10.79
2023-04-16T00:23:20.337Z,10.74
2023-04-16T00:25:48.254Z,10.71
2023-04-16T00:28:16.113Z,10.57
2023-04-16T00:30:44.129Z,10.50
2023-04-16T00:33:14.397Z,10.30
2023-04-16T00:35:42.249Z,10.26
2023-04-16T00:38:10.099Z,10.26
2023-04-16T00:40:38.397Z,10.29
2023-04-16T00:43:06.405Z,10.39
2023-04-16T00:45:34.610Z,10.21
2023-04-16T00:48:03.273Z,10.23
2023-04-16T00:50:31.311Z,10.11
2023-04-16T00:52:59.359Z,10.09
2023-04-16T00:55:27.206Z,10.22
2023-04-16T00:57:55.106Z,10.12
2023-04-16T01:00:23.063Z,10.08
2023-04-16T01:02:54.964Z,10.07
2023-04-16T01:05:23.056Z,10.12
2023-04-16T01:07:51.366Z,10.08
2023-04-16T01:10:19.414Z,10.10
2023-04-16T01:12:47.396Z,10.13
2023-04-16T01:15:15.394Z,10.09
2023-04-16T01:17:46.374Z,9.90
2023-04-16T01:20:14.732Z,9.84
2023-04-16T01:22:42.956Z,9.87
2023-04-16T01:25:14.661Z,9.86
2023-04-16T01:27:42.535Z,9.81
2023-04-16T01:30:10.761Z,9.65
2023-04-16T01:32:52.241Z,9.68
2023-04-16T01:35:20.189Z,9.60
2023-04-16T01:37:50.300Z,9.57
2023-04-16T01:40:18.859Z,9.63
2023-04-16T01:42:46.719Z,9.53
2023-04-16T01:45:14.772Z,9.63
2023-04-16T01:47:45.563Z,9.45
2023-04-16T01:50:13.524Z,9.37
2023-04-16T01:52:41.431Z,9.38
2023-04-16T01:55:10.049Z,9.25
2023-04-16T01:57:38.706Z,9.37
2023-04-16T02:00:08.583Z,9.45
2023-04-16T02:02:46.882Z,9.44
2023-04-16T02:05:20.890Z,9.33
2023-04-16T02:07:48.756Z,9.20
2023-04-16T02:10:17.625Z,9.22
2023-04-16T02:12:46.435Z,9.30
2023-04-16T02:15:16.476Z,9.26
2023-04-16T02:17:46.790Z,9.25
2023-04-16T02:20:14.852Z,9.15
2023-04-16T02:22:49.742Z,9.08
2023-04-16T02:25:20.806Z,8.99
2023-04-16T02:27:51.570Z,8.93
2023-04-16T02:30:34.060Z,8.99
2023-04-16T02:33:05.598Z,9.20
2023-04-16T02:35:35.354Z,9.09
2023-04-16T02:38:04.485Z,9.06
2023-04-16T02:40:32.835Z,9.08
2023-04-16T02:43:01.225Z,9.03
2023-04-16T02:45:29.290Z,8.91
2023-04-16T02:47:57.232Z,8.94
2023-04-16T02:50:25.057Z,8.96
2023-04-16T02:52:52.973Z,8.86
2023-04-16T02:55:20.880Z,8.82
2023-04-16T02:57:48.780Z,8.73
2023-04-16T03:00:16.806Z,8.66
2023-04-16T03:02:44.829Z,8.53
2023-04-16T03:05:12.969Z,8.50
2023-04-16T03:07:41.036Z,8.39
2023-04-16T03:10:09.375Z,8.39
2023-04-16T03:12:37.317Z,8.43
2023-04-16T03:15:08.268Z,8.44
2023-04-16T03:17:36.483Z,8.56
2023-04-16T03:20:05.287Z,8.59
2023-04-16T03:22:33.167Z,8.64
2023-04-16T03:25:01.484Z,8.59
2023-04-16T03:27:29.417Z,8.56
2023-04-16T03:29:57.406Z,8.47
2023-04-16T03:32:26.185Z,8.36
2023-04-16T03:34:54.276Z,8.28
2023-04-16T03:37:24.371Z,8.24
2023-04-16T03:39:52.504Z,8.35
2023-04-16T03:42:20.310Z,8.26
2023-04-16T03:44:48.239Z,8.23
2023-04-16T03:47:17.330Z,8.34
2023-04-16T03:49:46.691Z,8.48
2023-04-16T03:52:14.753Z,8.50
2023-04-16T03:54:42.983Z,8.60
2023-04-16T03:57:28.635Z,8.46
2023-04-16T04:00:02.234Z,8.45
2023-04-16T04:02:42.170Z,8.31
2023-04-16T04:05:17.655Z,8.30
2023-04-16T04:07:46.939Z,8.28
2023-04-16T04:10:16.390Z,8.33
2023-04-16T04:12:44.474Z,8.29
2023-04-16T04:15:13.287Z,8.33
2023-04-16T04:17:43.372Z,8.36
2023-04-16T04:20:12.160Z,8.33
2023-04-16T04:22:41.788Z,8.33
2023-04-16T04:25:11.171Z,8.22
2023-04-16T04:27:39.205Z,8.23
2023-04-16T04:30:08.516Z,8.10
2023-04-16T04:32:36.642Z,8.13
2023-04-16T04:35:04.713Z,8.09
2023-04-16T04:37:32.623Z,8.12
2023-04-16T04:40:04.409Z,8.16
2023-04-16T04:42:32.342Z,8.26
2023-04-16T04:45:00.109Z,8.06
2023-04-16T04:47:29.425Z,8.13
2023-04-16T04:49:57.320Z,8.01
2023-04-16T04:52:26.082Z,8.11
2023-04-16T04:54:54.075Z,8.16
2023-04-16T04:57:22.055Z,8.24
2023-04-16T04:59:52.781Z,8.21
2023-04-16T05:02:21.139Z,8.23
2023-04-16T05:04:49.149Z,8.44
2023-04-16T05:07:17.104Z,8.41
2023-04-16T05:09:45.048Z,8.55
2023-04-16T05:12:12.987Z,8.70
2023-04-16T05:14:40.943Z,8.71
2023-04-16T05:17:08.994Z,8.79
2023-04-16T05:19:37.255Z,8.91
2023-04-16T05:22:05.286Z,9.14
2023-04-16T05:24:33.094Z,9.12
2023-04-16T05:27:01.563Z,9.25
2023-04-16T05:29:29.442Z,9.40
2023-04-16T05:31:57.336Z,9.28
2023-04-16T05:34:25.118Z,9.26
2023-04-16T05:36:52.926Z,9.50
2023-04-16T05:39:21.394Z,9.58
2023-04-16T05:41:49.267Z,9.59
2023-04-16T05:44:17.167Z,9.90
2023-04-16T05:46:45.154Z,10.09
2023-04-16T05:49:13.101Z,10.03
2023-04-16T05:51:41.153Z,10.33
2023-04-16T05:54:09.069Z,10.36
2023-04-16T05:56:36.896Z,10.36
2023-04-16T05:59:04.721Z,10.59
2023-04-16T06:01:34.488Z,10.87
2023-04-16T06:04:02.684Z,11.08
2023-04-16T06:06:30.908Z,11.14
2023-04-16T06:08:58.900Z,11.62
2023-04-16T06:11:27.700Z,11.74
2023-04-16T06:13:55.630Z,11.65
2023-04-16T06:16:23.586Z,11.90
2023-04-16T06:18:51.493Z,12.00
2023-04-16T06:21:19.529Z,12.04
2023-04-16T06:23:47.420Z,11.82
2023-04-16T06:26:15.293Z,11.69
2023-04-16T06:28:43.383Z,11.51
2023-04-16T06:31:14.325Z,11.37
2023-04-16T06:33:42.276Z,11.37
2023-04-16T06:36:11.656Z,11.69
2023-04-16T06:38:40.180Z,11.93
2023-04-16T06:41:08.410Z,12.09
2023-04-16T06:43:36.440Z,12.13
2023-04-16T06:46:05.448Z,12.39
2023-04-16T06:48:33.254Z,12.38
2023-04-16T06:51:01.612Z,12.26
2023-04-16T06:53:29.449Z,12.63
2023-04-16T06:55:57.366Z,12.65
2023-04-16T06:58:25.437Z,12.81
2023-04-16T07:00:53.442Z,13.04
2023-04-16T07:03:21.547Z,13.16
2023-04-16T07:05:49.560Z,13.24
2023-04-16T07:08:17.636Z,13.01
2023-04-16T07:10:50.052Z,13.51
2023-04-16T07:13:18.970Z,13.70
2023-04-16T07:15:49.109Z,13.88
2023-04-16T07:18:17.309Z,14.07
2023-04-16T07:20:46.084Z,14.44
2023-04-16T07:23:14.024Z,13.91
2023-04-16T07:25:42.476Z,14.10
2023-04-16T07:28:10.404Z,14.40
2023-04-16T07:30:38.295Z,14.66
2023-04-16T07:33:06.310Z,15.13
2023-04-16T07:35:34.147Z,15.15
2023-04-16T07:38:02.058Z,14.97
2023-04-16T07:40:30.138Z,14.36
2023-04-16T07:42:58.046Z,14.88
2023-04-16T07:45:26.707Z,15.22
2023-04-16T07:47:54.560Z,15.54
2023-04-16T07:50:22.506Z,15.59
2023-04-16T07:52:50.408Z,15.57
2023-04-16T07:55:20.896Z,15.71
2023-04-16T07:57:48.875Z,15.74
2023-04-16T08:00:16.948Z,16.31
2023-04-16T08:02:45.231Z,15.91
2023-04-16T08:05:13.566Z,15.84
2023-04-16T08:07:41.512Z,16.09
2023-04-16T08:10:09.750Z,16.11
2023-04-16T08:12:37.821Z,16.17
2023-04-16T08:15:06.543Z,16.49
2023-04-16T08:17:35.128Z,17.29
2023-04-16T08:20:03.017Z,16.72
2023-04-16T08:22:31.513Z,16.74
2023-04-16T08:24:59.507Z,16.95
2023-04-16T08:27:27.402Z,17.44
2023-04-16T08:29:55.304Z,17.41
2023-04-16T08:32:23.227Z,17.50
2023-04-16T08:34:51.412Z,17.11
2023-04-16T08:37:19.393Z,17.31
2023-04-16T08:39:48.314Z,17.33
2023-04-16T08:42:33.490Z,17.75
2023-04-16T08:45:27.838Z,17.55
2023-04-16T08:47:56.087Z,17.91
2023-04-16T08:50:25.668Z,17.64
2023-04-16T08:52:59.048Z,17.63
2023-04-16T08:55:36.488Z,17.35
2023-04-16T08:58:13.648Z,17.54
2023-04-16T09:00:43.778Z,18.20
2023-04-16T09:03:12.707Z,18.54
2023-04-16T09:05:42.033Z,18.55
2023-04-16T09:08:10.444Z,18.38
2023-04-16T09:10:38.350Z,18.13
2023-04-16T09:13:06.342Z,18.44
2023-04-16T09:15:35.696Z,18.73
2023-04-16T09:18:03.840Z,18.25
2023-04-16T09:20:31.772Z,18.56
2023-04-16T09:22:59.689Z,18.62
2023-04-16T09:25:27.972Z,18.88
2023-04-16T09:27:55.970Z,18.52
2023-04-16T09:30:26.291Z,18.62
2023-04-16T09:33:16.934Z,18.31
2023-04-16T09:35:47.778Z,18.62
2023-04-16T09:38:16.097Z,18.32
2023-04-16T09:40:44.215Z,19.27
2023-04-16T09:43:16.769Z,18.35
2023-04-16T09:45:55.755Z,18.68
2023-04-16T09:48:31.193Z,19.06
2023-04-16T09:51:00.549Z,19.52
2023-04-16T09:53:32.053Z,19.00
2023-04-16T09:56:03.665Z,18.70
2023-04-16T09:58:31.891Z,19.26
2023-04-16T10:01:03.984Z,19.49
2023-04-16T10:03:33.402Z,19.09
2023-04-16T10:06:07.786Z,19.15
2023-04-16T10:08:36.444Z,18.82
2023-04-16T10:11:04.729Z,18.83
2023-04-16T10:13:32.698Z,19.08
2023-04-16T10:16:00.910Z,19.12
2023-04-16T10:18:29.451Z,19.10
2023-04-16T10:20:57.837Z,19.14
2023-04-16T10:23:26.878Z,19.34
2023-04-16T10:25:57.544Z,19.64
2023-04-16T10:28:25.921Z,20.24
2023-04-16T10:30:55.106Z,20.07
2023-04-16T10:33:26.275Z,20.02
2023-04-16T10:36:11.925Z,19.84
2023-04-16T10:38:51.248Z,19.84
2023-04-16T10:41:22.683Z,20.17
2023-04-16T10:43:51.731Z,20.46
2023-04-16T10:46:30.761Z,20.80
2023-04-16T10:49:03.343Z,20.71
2023-04-16T10:51:33.151Z,21.13
2023-04-16T10:54:17.098Z,20.52
2023-04-16T10:56:46.634Z,20.43
2023-04-16T10:59:19.094Z,20.28
2023-04-16T11:01:49.108Z,20.63
2023-04-16T11:04:20.051Z,20.02
2023-04-16T11:07:16.814Z,20.19
2023-04-16T11:09:47.799Z,20.75
2023-04-16T11:12:18.893Z,20.76
2023-04-16T11:15:06.523Z,20.85
2023-04-16T11:17:48.401Z,21.07
2023-04-16T11:20:20.144Z,21.27
2023-04-16T11:22:50.207Z,21.11
2023-04-16T11:25:25.615Z,21.00
2023-04-16T11:27:54.937Z,21.02
2023-04-16T11:30:36.147Z,21.44
2023-04-16T11:33:09.760Z,20.56
2023-04-16T11:35:41.696Z,20.24
2023-04-16T11:38:09.698Z,20.37
2023-04-16T11:40:37.877Z,20.36
2023-04-16T11:43:16.406Z,20.44
2023-04-16T11:46:12.830Z,20.62
2023-04-16T11:48:55.687Z,20.88
2023-04-16T11:51:24.046Z,20.55
2023-04-16T11:53:54.040Z,20.18
2023-04-16T11:56:29.693Z,20.17
2023-04-16T11:59:12.552Z,20.31
2023-04-16T12:01:42.772Z,20.62
2023-04-16T12:04:10.974Z,20.63
2023-04-16T12:06:38.959Z,20.58
2023-04-16T12:09:28.015Z,20.56
2023-04-16T12:11:56.206Z,20.75
2023-04-16T12:14:24.524Z,20.69
2023-04-16T12:16:52.648Z,20.42
2023-04-16T12:19:20.599Z,20.47
2023-04-16T12:21:50.533Z,20.74
2023-04-16T12:24:24.378Z,20.77
2023-04-16T12:27:03.331Z,20.82
2023-04-16T12:29:32.032Z,20.61
2023-04-16T12:31:59.932Z,21.05
2023-04-16T12:34:47.940Z,21.09
2023-04-16T12:37:16.110Z,21.07
2023-04-16T12:39:44.613Z,21.30
2023-04-16T12:42:14.340Z,20.82
2023-04-16T12:44:42.547Z,20.22
2023-04-16T12:47:10.678Z,20.53
2023-04-16T12:49:38.725Z,20.53
2023-04-16T12:52:07.127Z,20.94
2023-04-16T12:54:35.040Z,21.37
2023-04-16T12:57:03.724Z,21.39
2023-04-16T12:59:31.629Z,21.32
2023-04-16T13:02:01.766Z,21.55
2023-04-16T13:04:29.869Z,21.60
2023-04-16T13:06:58.313Z,22.02
2023-04-16T13:09:26.246Z,22.10
2023-04-16T13:11:54.108Z,21.88
2023-04-16T13:14:21.991Z,21.76
2023-04-16T13:16:49.875Z,21.56
2023-04-16T13:19:19.280Z,22.11
2023-04-16T13:21:47.299Z,22.10
2023-04-16T13:24:15.312Z,22.65
2023-04-16T13:26:43.592Z,22.11
2023-04-16T13:29:11.974Z,21.73
2023-04-16T13:31:41.052Z,22.09
2023-04-16T13:34:09.142Z,22.75
2023-04-16T13:36:37.639Z,22.77
2023-04-16T13:39:10.922Z,22.45
2023-04-16T13:41:39.828Z,22.29
2023-04-16T13:44:07.937Z,22.09
2023-04-16T13:46:35.984Z,22.38
2023-04-16T13:49:04.055Z,22.60
2023-04-16T13:51:32.960Z,22.72
2023-04-16T13:54:03.547Z,22.38
2023-04-16T13:56:31.523Z,22.61
2023-04-16T13:58:59.449Z,22.67
2023-04-16T14:01:27.369Z,22.51
2023-04-16T14:03:55.392Z,22.47
2023-04-16T14:06:23.297Z,22.11
2023-04-16T14:08:51.188Z,21.52
2023-04-16T14:11:19.127Z,21.27
2023-04-16T14:13:47.072Z,21.20
2023-04-16T14:16:15.818Z,20.79
2023-04-16T14:18:43.737Z,20.45
2023-04-16T14:21:11.596Z,20.21
2023-04-16T14:23:40.520Z,20.02
2023-04-16T14:26:08.667Z,20.22
2023-04-16T14:28:36.488Z,20.35
2023-04-16T14:31:04.330Z,20.21
2023-04-16T14:33:32.571Z,20.26
2023-04-16T14:36:02.664Z,20.03
2023-04-16T14:38:32.121Z,19.77
2023-04-16T14:41:00.694Z,19.79
2023-04-16T14:43:28.529Z,19.87
2023-04-16T14:45:58.712Z,19.75
2023-04-16T14:48:26.766Z,19.77
2023-04-16T14:50:54.710Z,19.67
2023-04-16T14:53:24.311Z,19.51
2023-04-16T14:55:53.495Z,19.37
2023-04-16T14:58:22.098Z,19.26
2023-04-16T15:00:49.970Z,19.25
2023-04-16T15:03:19.051Z,19.07
2023-04-16T15:05:52.418Z,19.20
2023-04-16T15:08:20.413Z,19.50
2023-04-16T15:10:48.253Z,19.51
2023-04-16T15:13:16.508Z,19.63
2023-04-16T15:15:44.922Z,19.50
2023-04-16T15:18:12.844Z,19.41
2023-04-16T15:20:41.482Z,19.50
2023-04-16T15:23:09.301Z,19.25
2023-04-16T15:25:37.269Z,19.30
2023-04-16T15:28:06.665Z,19.44
2023-04-16T15:30:34.579Z,19.31
2023-04-16T15:33:04.008Z,19.28
2023-04-16T15:35:31.914Z,19.47
2023-04-16T15:37:59.773Z,19.46
2023-04-16T15:40:27.815Z,19.41
2023-04-16T15:42:56.545Z,19.31
2023-04-16T15:45:25.535Z,19.19
2023-04-16T15:47:53.555Z,19.10
2023-04-16T15:50:22.100Z,19.37
2023-04-16T15:52:50.411Z,19.36
2023-04-16T15:55:21.357Z,19.11
2023-04-16T15:57:49.203Z,18.96
2023-04-16T16:00:20.082Z,19.07
2023-04-16T16:02:48.142Z,19.19
2023-04-16T16:05:17.101Z,19.11
2023-04-16T16:07:45.319Z,19.15
2023-04-16T16:10:13.551Z,19.14
2023-04-16T16:12:43.696Z,18.91
2023-04-16T16:15:11.669Z,18.77
2023-04-16T16:17:41.429Z,18.49
2023-04-16T16:20:10.767Z,18.49
2023-04-16T16:22:39.398Z,18.40
2023-04-16T16:25:07.671Z,18.40
2023-04-16T16:27:38.572Z,18.46
2023-04-16T16:30:07.800Z,18.28
2023-04-16T16:32:36.223Z,18.20
2023-04-16T16:35:04.587Z,18.29
2023-04-16T16:37:32.436Z,18.37
2023-04-16T16:40:00.292Z,18.32
2023-04-16T16:42:28.359Z,18.46
2023-04-16T16:44:57.605Z,18.32
2023-04-16T16:47:26.108Z,18.11
2023-04-16T16:50:03.016Z,18.19
2023-04-16T16:52:31.420Z,18.27
2023-04-16T16:54:59.423Z,18.26
2023-04-16T16:57:27.396Z,18.02
2023-04-16T16:59:55.372Z,18.16
2023-04-16T17:02:23.447Z,18.05
2023-04-16T17:04:52.942Z,18.08
2023-04-16T17:07:21.159Z,17.88
2023-04-16T17:09:49.174Z,17.40
2023-04-16T17:12:17.137Z,17.67
2023-04-16T17:14:49.603Z,17.56
2023-04-16T17:17:17.869Z,17.60
2023-04-16T17:19:45.728Z,17.50
2023-04-16T17:22:13.600Z,17.02
2023-04-16T17:24:41.731Z,16.65
2023-04-16T17:27:09.629Z,16.72
2023-04-16T17:29:37.481Z,16.45
2023-04-16T17:32:05.714Z,16.22
2023-04-16T17:34:35.089Z,16.38
2023-04-16T17:37:03.057Z,16.62
2023-04-16T17:39:31.221Z,16.39
2023-04-16T17:42:01.288Z,16.24
2023-04-16T17:44:29.177Z,16.21
2023-04-16T17:46:57.575Z,16.47
2023-04-16T17:49:25.778Z,16.44
2023-04-16T17:51:54.109Z,16.11
2023-04-16T17:54:25.033Z,15.95
2023-04-16T17:56:55.519Z,16.29
2023-04-16T17:59:23.890Z,15.97
2023-04-16T18:01:51.766Z,16.14
2023-04-16T18:04:19.862Z,16.37
2023-04-16T18:06:47.876Z,16.39
2023-04-16T18:09:15.838Z,16.27
2023-04-16T18:11:43.764Z,16.15
2023-04-16T18:14:16.608Z,16.17
2023-04-16T18:16:46.822Z,16.22
2023-04-16T18:19:16.055Z,16.19
2023-04-16T18:21:44.084Z,16.25
2023-04-16T18:24:12.248Z,15.66
2023-04-16T18:26:41.295Z,15.89
2023-04-16T18:29:09.388Z,15.97
2023-04-16T18:31:37.483Z,15.97
2023-04-16T18:34:05.912Z,15.92
2023-04-16T18:36:34.332Z,15.77
2023-04-16T18:39:03.245Z,15.69
2023-04-16T18:41:31.797Z,15.90
2023-04-16T18:44:02.749Z,15.77
2023-04-16T18:46:30.964Z,15.79
2023-04-16T18:49:01.616Z,15.81
2023-04-16T18:51:29.677Z,15.68
2023-04-16T18:53:58.128Z,15.67
2023-04-16T18:56:29.058Z,15.55
2023-04-16T18:58:57.112Z,15.19
2023-04-16T19:01:25.232Z,14.55
2023-04-16T19:03:53.202Z,14.52
2023-04-16T19:06:21.082Z,14.28
2023-04-16T19:08:48.920Z,14.42
2023-04-16T19:11:16.779Z,14.40
2023-04-16T19:13:44.916Z,14.27
2023-04-16T19:16:12.837Z,14.13
2023-04-16T19:18:41.710Z,14.03
2023-04-16T19:21:11.083Z,14.07
2023-04-16T19:23:39.096Z,13.98
2023-04-16T19:26:06.883Z,13.91
2023-04-16T19:28:34.817Z,13.86
2023-04-16T19:31:02.823Z,13.78
2023-04-16T19:33:32.286Z,13.92
2023-04-16T19:36:00.766Z,13.88
2023-04-16T19:38:29.157Z,13.79
2023-04-16T19:40:59.656Z,13.83
2023-04-16T19:43:30.988Z,13.63
2023-04-16T19:45:59.390Z,13.67
2023-04-16T19:48:28.962Z,13.66
2023-04-16T19:50:56.960Z,13.55
2023-04-16T19:53:25.269Z,13.57
2023-04-16T19:55:53.085Z,13.49
2023-04-16T19:58:20.926Z,13.54
2023-04-16T20:00:48.838Z,13.53
2023-04-16T20:03:16.783Z,13.51
2023-04-16T20:05:48.900Z,13.57
2023-04-16T20:08:16.957Z,13.46
2023-04-16T20:10:45.450Z,13.50
2023-04-16T20:13:13.878Z,13.40
2023-04-16T20:15:42.019Z,13.39
2023-04-16T20:18:09.917Z,13.22
2023-04-16T20:20:38.208Z,13.20
2023-04-16T20:23:06.058Z,13.10
2023-04-16T20:25:33.967Z,13.03
2023-04-16T20:28:03.501Z,13.07
2023-04-16T20:30:38.799Z,13.03
2023-04-16T20:33:07.852Z,12.87
2023-04-16T20:35:36.854Z,12.81
2023-04-16T20:38:04.699Z,12.85
2023-04-16T20:40:32.588Z,12.82
2023-04-16T20:43:00.535Z,12.71
2023-04-16T20:45:41.246Z,12.62
2023-04-16T20:48:09.420Z,12.62
2023-04-16T20:50:37.593Z,12.56
2023-04-16T20:53:05.434Z,12.56
2023-04-16T20:55:33.253Z,12.48
2023-04-16T20:58:01.208Z,12.53
2023-04-16T21:00:29.541Z,12.35
2023-04-16T21:02:57.577Z,12.42
2023-04-16T21:05:26.749Z,12.38
2023-04-16T21:07:55.835Z,12.43
2023-04-16T21:10:23.847Z,12.40
2023-04-16T21:12:53.030Z,12.28
2023-04-16T21:15:21.008Z,12.22
2023-04-16T21:17:49.066Z,12.28
2023-04-16T21:20:17.023Z,12.19
2023-04-16T21:22:44.995Z,12.28
2023-04-16T21:25:12.969Z,12.16
2023-04-16T21:27:40.785Z,12.21
2023-04-16T21:30:09.493Z,12.18
2023-04-16T21:32:37.447Z,12.23
2023-04-16T21:35:06.267Z,12.18
2023-04-16T21:37:34.229Z,12.07
2023-04-16T21:40:02.747Z,11.98
2023-04-16T21:42:31.635Z,11.91
2023-04-16T21:44:59.621Z,11.79
2023-04-16T21:47:27.503Z,11.70
2023-04-16T21:49:55.553Z,11.70
2023-04-16T21:52:23.376Z,11.72
2023-04-16T21:54:51.367Z,11.68
2023-04-16T21:57:24.248Z,11.64
2023-04-16T21:59:52.187Z,11.49
2023-04-16T22:02:20.340Z,11.56
2023-04-16T22:04:48.875Z,11.47
2023-04-16T22:07:17.153Z,11.32
2023-04-16T22:09:45.093Z,11.22
2023-04-16T22:12:12.965Z,11.30
2023-04-16T22:14:49.097Z,11.27
2023-04-16T22:17:27.821Z,11.23
2023-04-16T22:19:55.682Z,11.19
2023-04-16T22:22:23.590Z,11.14
2023-04-16T22:24:51.595Z,10.85
2023-04-16T22:27:19.459Z,10.86
2023-04-16T22:29:47.318Z,10.91
2023-04-16T22:32:15.705Z,10.92
2023-04-16T22:34:43.608Z,10.82
2023-04-16T22:37:11.528Z,10.82
2023-04-16T22:39:39.469Z,10.83
2023-04-16T22:42:07.535Z,10.96
2023-04-16T22:44:37.660Z,10.82
2023-04-16T22:47:05.614Z,10.90
2023-04-16T22:49:36.614Z,10.78
2023-04-16T22:52:04.532Z,10.76
2023-04-16T22:54:32.703Z,10.69
2023-04-16T22:57:01.171Z,10.61
2023-04-16T22:59:29.026Z,10.71
2023-04-16T23:01:56.932Z,10.59
2023-04-16T23:04:24.953Z,10.69
2023-04-16T23:06:52.879Z,10.74
2023-04-16T23:09:22.643Z,10.73
2023-04-16T23:11:50.563Z,10.77
2023-04-16T23:14:18.799Z,10.61
2023-04-16T23:16:46.671Z,10.51
2023-04-16T23:19:15.887Z,10.48
2023-04-16T23:21:43.903Z,10.49
2023-04-16T23:24:12.409Z,10.36
2023-04-16T23:26:40.361Z,10.39
2023-04-16T23:29:08.382Z,10.32
2023-04-16T23:31:36.548Z,10.39
2023-04-16T23:34:04.563Z,10.43
2023-04-16T23:36:32.538Z,10.38
2023-04-16T23:39:00.407Z,10.24
2023-04-16T23:41:28.273Z,10.20
2023-04-16T23:43:56.113Z,10.21
2023-04-16T23:46:23.965Z,10.22
2023-04-16T23:48:52.855Z,10.09
2023-04-16T23:51:20.850Z,10.05
2023-04-16T23:53:48.681Z,10.14
2023-04-16T23:56:16.800Z,10.07
2023-04-16T23:58:44.647Z,10.12
